| time (UTC) | temp F | wind direction | speed MPH | gust MPH | rain 1hr in | rain 24hr in | rain mn in | humidity % | barometer mb |
| 20260904234505 | 80 | 127 | 0.0 | 6.0 | 0.01 | 0.02 | 0.02 | 86 | 1013.2 |
| 20260904233025 | 81 | 260 | 0.0 | 1.0 | 0.00 | 0.01 | 0.01 | 87 | 1012.6 |
| 20260904231504 | 81 | 287 | 0.0 | 1.0 | 0.00 | 0.01 | 0.01 | 87 | 1011.7 |
| 20260904230005 | 80 | 272 | 0.0 | 3.0 | 0.00 | 0.01 | 0.01 | 86 | 1012.0 |
| 20260904224505 | 80 | 272 | 0.0 | 2.0 | 0.00 | 0.01 | 0.01 | 84 | 1012.2 |
| 20260904223005 | 80 | 0 | 0.0 | 0.0 | 0.00 | 0.01 | 0.01 | 83 | 1011.5 |
| 20260904221505 | 80 | 134 | 0.0 | 1.0 | 0.00 | 0.01 | 0.01 | 84 | 1011.5 |
| 20260904220004 | 80 | 241 | 0.0 | 1.0 | 0.00 | 0.01 | 0.01 | 84 | 1011.7 |
| 20260904214505 | 79 | 286 | 0.0 | 2.0 | 0.00 | 0.01 | 0.01 | 85 | 1011.6 |
| 20260904213005 | 79 | 39 | 1.0 | 7.0 | 0.00 | 0.01 | 0.01 | 87 | 1011.9 |
| 20260904211526 | 80 | 67 | 0.0 | 6.0 | 0.01 | 0.01 | 0.01 | 84 | 1011.6 |
| 20260904210004 | 83 | 57 | 1.0 | 5.0 | 0.01 | 0.01 | 0.01 | 86 | 1011.9 |
| 20260904204526 | 86 | 0 | 0.0 | 0.0 | 0.01 | 0.01 | 0.01 | 90 | 1011.6 |
| 20260904203004 | 90 | 0 | 0.0 | 0.0 | 0.01 | 0.01 | 0.01 | 82 | 1010.3 |
| 20260904201504 | 93 | 133 | 1.0 | 4.0 | 0.00 | 0.00 | 0.00 | 70 | 1010.9 |
| 20260904200005 | 94 | 184 | 1.0 | 8.0 | 0.00 | 0.00 | 0.00 | 68 | 1010.7 |
| 20260904194504 | 96 | 147 | 1.0 | 6.0 | 0.00 | 0.00 | 0.00 | 65 | 1011.1 |
| 20260904193004 | 98 | 167 | 1.0 | 7.0 | 0.00 | 0.00 | 0.00 | 63 | 1011.2 |
| 20260904191504 | 97 | 174 | 1.0 | 10.0 | 0.00 | 0.00 | 0.00 | 65 | 1011.5 |
| 20260904190004 | 97 | 198 | 1.0 | 9.0 | 0.00 | 0.00 | 0.00 | 64 | 1011.9 |
| 20260904184504 | 96 | 223 | 2.0 | 8.0 | 0.00 | 0.00 | 0.00 | 65 | 1012.0 |
| 20260904183025 | 96 | 184 | 1.0 | 6.0 | 0.00 | 0.00 | 0.00 | 65 | 1012.2 |
| 20260904181504 | 96 | 170 | 1.0 | 5.0 | 0.00 | 0.00 | 0.00 | 66 | 1012.4 |
| 20260904180004 | 97 | 201 | 1.0 | 4.0 | 0.00 | 0.00 | 0.00 | 66 | 1012.7 |
| 20260904174504 | 96 | 193 | 1.0 | 4.0 | 0.00 | 0.00 | 0.00 | 67 | 1012.7 |
| 20260904173004 | 95 | 179 | 1.0 | 7.0 | 0.00 | 0.00 | 0.00 | 68 | 1012.9 |
| 20260904171504 | 96 | 215 | 1.0 | 6.0 | 0.00 | 0.00 | 0.00 | 67 | 1013.0 |
| 20260904170004 | 95 | 208 | 1.0 | 7.0 | 0.00 | 0.00 | 0.00 | 68 | 1013.1 |
| 20260904164504 | 94 | 184 | 1.0 | 5.0 | 0.00 | 0.00 | 0.00 | 69 | 1013.2 |
| 20260904163004 | 94 | 177 | 2.0 | 6.0 | 0.00 | 0.00 | 0.00 | 70 | 1013.4 |
| 20260904161504 | 94 | 213 | 1.0 | 6.0 | 0.00 | 0.00 | 0.00 | 69 | 1013.6 |
| 20260904160004 | 93 | 171 | 1.0 | 4.0 | 0.00 | 0.00 | 0.00 | 71 | 1013.6 |
| 20260904154525 | 92 | 137 | 1.0 | 5.0 | 0.00 | 0.00 | 0.00 | 71 | 1013.7 |
| 20260904153004 | 91 | 149 | 2.0 | 6.0 | 0.00 | 0.00 | 0.00 | 73 | 1013.6 |
| 20260904151504 | 90 | 179 | 2.0 | 6.0 | 0.00 | 0.00 | 0.00 | 73 | 1013.6 |
| 20260904150004 | 89 | 148 | 1.0 | 6.0 | 0.00 | 0.00 | 0.00 | 76 | 1013.8 |
| 20260904144524 | 88 | 167 | 1.0 | 5.0 | 0.00 | 0.00 | 0.00 | 78 | 1013.8 |
| 20260904143025 | 87 | 205 | 1.0 | 4.0 | 0.00 | 0.00 | 0.00 | 80 | 1013.9 |
| 20260904141503 | 86 | 163 | 1.0 | 6.0 | 0.00 | 0.00 | 0.00 | 81 | 1013.9 |
| 20260904140025 | 85 | 154 | 0.0 | 5.0 | 0.00 | 0.00 | 0.00 | 82 | 1013.8 |
| 20260904134504 | 84 | 188 | 0.0 | 4.0 | 0.00 | 0.00 | 0.00 | 82 | 1013.8 |
| 20260904133004 | 83 | 164 | 0.0 | 4.0 | 0.00 | 0.00 | 0.00 | 84 | 1013.8 |
| 20260904131504 | 82 | 181 | 0.0 | 4.0 | 0.00 | 0.00 | 0.00 | 85 | 1013.6 |
| 20260904130004 | 82 | 153 | 0.0 | 4.0 | 0.00 | 0.00 | 0.00 | 88 | 1014.0 |
| 20260904124503 | 81 | 147 | 0.0 | 5.0 | 0.00 | 0.00 | 0.00 | 89 | 1014.2 |
| 20260904123004 | 80 | 161 | 0.0 | 4.0 | 0.00 | 0.00 | 0.00 | 91 | 1014.1 |
| 20260904121504 | 79 | 140 | 0.0 | 4.0 | 0.00 | 0.00 | 0.00 | 92 | 1014.4 |
| 20260904120004 | 79 | 163 | 0.0 | 3.0 | 0.00 | 0.00 | 0.00 | 93 | 1014.5 |
| 20260904114525 | 79 | 0 | 0.0 | 0.0 | 0.00 | 0.00 | 0.00 | 93 | 1014.6 |
| 20260904113024 | 78 | 175 | 0.0 | 2.0 | 0.00 | 0.00 | 0.00 | 93 | 1014.3 |
| 20260904111504 | 78 | 169 | 0.0 | 1.0 | 0.00 | 0.00 | 0.00 | 94 | 1014.2 |
| 20260904110004 | 78 | 123 | 0.0 | 3.0 | 0.00 | 0.00 | 0.00 | 93 | 1013.9 |
| 20260904104503 | 78 | 163 | 0.0 | 5.0 | 0.00 | 0.00 | 0.00 | 94 | 1013.6 |
| 20260904103003 | 78 | 124 | 0.0 | 3.0 | 0.00 | 0.00 | 0.00 | 94 | 1013.9 |
| 20260904101504 | 78 | 163 | 0.0 | 1.0 | 0.00 | 0.00 | 0.00 | 93 | 1013.6 |
| 20260904100004 | 78 | 0 | 0.0 | 0.0 | 0.00 | 0.00 | 0.00 | 93 | 1014.0 |
| 20260904094504 | 78 | 103 | 0.0 | 1.0 | 0.00 | 0.00 | 0.00 | 92 | 1014.0 |
| 20260904093003 | 79 | 162 | 0.0 | 3.0 | 0.00 | 0.00 | 0.00 | 92 | 1013.9 |
| 20260904091504 | 79 | 166 | 0.0 | 5.0 | 0.00 | 0.00 | 0.00 | 91 | 1014.0 |
| 20260904090004 | 79 | 115 | 0.0 | 1.0 | 0.00 | 0.00 | 0.00 | 92 | 1014.1 |
| 20260904084503 | 79 | 227 | 0.0 | 4.0 | 0.00 | 0.00 | 0.00 | 92 | 1013.7 |
| 20260904083004 | 79 | 197 | 0.0 | 2.0 | 0.00 | 0.00 | 0.00 | 92 | 1013.8 |
| 20260904081503 | 79 | 227 | 0.0 | 1.0 | 0.00 | 0.00 | 0.00 | 92 | 1013.7 |
| 20260904080003 | 79 | 142 | 0.0 | 3.0 | 0.00 | 0.00 | 0.00 | 92 | 1013.7 |
| 20260904074505 | 79 | 133 | 0.0 | 6.0 | 0.00 | 0.00 | 0.00 | 91 | 1013.7 |
| 20260904073005 | 79 | 238 | 0.0 | 2.0 | 0.00 | 0.00 | 0.00 | 92 | 1013.8 |
| 20260904071505 | 79 | 152 | 0.0 | 2.0 | 0.00 | 0.00 | 0.00 | 92 | 1013.7 |
| 20260904070005 | 79 | 135 | 0.0 | 1.0 | 0.00 | 0.00 | 0.00 | 92 | 1013.6 |
| 20260904064526 | 79 | 132 | 0.0 | 3.0 | 0.00 | 0.00 | 0.00 | 92 | 1013.5 |
| 20260904063005 | 79 | 220 | 0.0 | 1.0 | 0.00 | 0.00 | 0.00 | 92 | 1013.7 |
| 20260904061505 | 79 | 280 | 0.0 | 1.0 | 0.00 | 0.00 | 0.00 | 92 | 1014.0 |
| 20260904060026 | 79 | 114 | 0.0 | 1.0 | 0.00 | 0.00 | 0.00 | 92 | 1014.2 |
| 20260904054505 | 80 | 131 | 0.0 | 1.0 | 0.00 | 0.00 | 0.00 | 91 | 1014.3 |
| 20260904053005 | 80 | 227 | 0.0 | 2.0 | 0.00 | 0.00 | 0.00 | 91 | 1014.5 |
| 20260904051505 | 80 | 217 | 0.0 | 3.0 | 0.00 | 0.00 | 0.00 | 90 | 1014.7 |
| 20260904050005 | 80 | 213 | 1.0 | 4.0 | 0.00 | 0.00 | 0.00 | 90 | 1014.7 |
| 20260904044505 | 80 | 217 | 0.0 | 6.0 | 0.00 | 0.00 | 0.00 | 89 | 1014.6 |
| 20260904043005 | 81 | 171 | 0.0 | 3.0 | 0.00 | 0.00 | 0.00 | 88 | 1014.8 |
| 20260904041505 | 81 | 166 | 0.0 | 4.0 | 0.00 | 0.00 | 0.00 | 88 | 1014.8 |
| 20260904040007 | 81 | 180 | 1.0 | 4.0 | 0.00 | 0.00 | 0.00 | 87 | 1014.7 |
| 20260904034505 | 81 | 199 | 0.0 | 4.0 | 0.00 | 0.00 | 0.00 | 87 | 1014.6 |
| 20260904033005 | 82 | 227 | 0.0 | 1.0 | 0.00 | 0.00 | 0.00 | 86 | 1014.7 |
| 20260904031505 | 82 | 242 | 1.0 | 5.0 | 0.00 | 0.00 | 0.00 | 85 | 1014.8 |
| 20260904030005 | 82 | 195 | 1.0 | 4.0 | 0.00 | 0.00 | 0.00 | 85 | 1014.8 |
| 20260904024505 | 82 | 152 | 1.0 | 4.0 | 0.00 | 0.00 | 0.00 | 85 | 1014.8 |
| 20260904023005 | 83 | 234 | 1.0 | 4.0 | 0.00 | 0.00 | 0.00 | 84 | 1015.0 |
| 20260904021505 | 83 | 209 | 1.0 | 6.0 | 0.00 | 0.00 | 0.00 | 84 | 1015.1 |
| 20260904020025 | 84 | 179 | 1.0 | 4.0 | 0.00 | 0.00 | 0.00 | 84 | 1015.2 |
| 20260904014504 | 84 | 199 | 1.0 | 7.0 | 0.00 | 0.00 | 0.00 | 83 | 1015.2 |
| 20260904013005 | 84 | 174 | 0.0 | 2.0 | 0.00 | 0.00 | 0.00 | 83 | 1015.0 |
| 20260904011505 | 85 | 202 | 0.0 | 4.0 | 0.00 | 0.00 | 0.00 | 83 | 1014.9 |
| 20260904010004 | 85 | 246 | 0.0 | 4.0 | 0.00 | 0.00 | 0.00 | 83 | 1014.8 |
| 20260904004505 | 86 | 222 | 0.0 | 4.0 | 0.00 | 0.00 | 0.00 | 84 | 1014.4 |
| 20260904003005 | 86 | 187 | 0.0 | 4.0 | 0.00 | 0.00 | 0.00 | 85 | 1014.1 |
| 20260904001505 | 86 | 269 | 0.0 | 1.0 | 0.00 | 0.00 | 0.00 | 84 | 1013.7 |
| 20260904000025 | 86 | 137 | 0.0 | 1.0 | 0.00 | 0.00 | 0.00 | 83 | 1013.5 |